Time;durP1;ratioP1;P1;durP2;ratioP2;P2;SDS_P1;SDS_P2;PMS_P1;PMS_P2;Temp;Humidity;BMP_temperature;BMP_pressure;BME280_temperature;BME280_humidity;BME280_pressure;Samples;Min_cycle;Max_cycle;Signal;HPM_P1;HPM_P2
2022/04/12 00:00:26;;;;;;;4.23;2.37;;;7.50;1.00;;;;;;5077243;28;20285;-78
2022/04/12 00:02:51;;;;;;;4.77;2.10;;;7.50;1.00;;;;;;5095140;28;20677;-78
2022/04/12 00:05:18;;;;;;;4.47;2.40;;;7.50;1.00;;;;;;5094851;28;20177;-77
2022/04/12 00:07:43;;;;;;;5.13;2.27;;;7.50;99.90;;;;;;5095516;28;20221;-77
2022/04/12 00:10:11;;;;;;;5.73;2.00;;;7.40;99.90;;;;;;5095632;28;20269;-78
2022/04/12 00:12:37;;;;;;;4.80;2.07;;;7.40;99.90;;;;;;5095098;28;20588;-77
2022/04/12 00:15:05;;;;;;;4.33;2.03;;;7.40;99.90;;;;;;5095420;28;20534;-78
2022/04/12 00:20:16;;;;;;;3.53;2.23;;;7.40;1.00;;;;;;5095516;28;20244;-78
2022/04/12 00:22:42;;;;;;;4.10;2.30;;;7.40;1.00;;;;;;5095116;28;20281;-78
2022/04/12 00:25:09;;;;;;;4.50;2.20;;;7.30;1.00;;;;;;5095072;28;20609;-77
2022/04/12 00:27:42;;;;;;;3.10;2.17;;;7.30;1.00;;;;;;5076529;28;20539;-77
2022/04/12 00:30:12;;;;;;;4.40;2.23;;;7.30;1.00;;;;;;5094566;28;20236;-78
2022/04/12 00:32:38;;;;;;;3.10;1.70;;;7.30;1.00;;;;;;5076681;28;20178;-78
2022/04/12 00:35:04;;;;;;;2.97;2.10;;;7.30;1.00;;;;;;5076366;28;20185;-78
2022/04/12 00:37:29;;;;;;;3.43;2.07;;;7.20;1.00;;;;;;5094402;28;20186;-77
2022/04/12 00:39:55;;;;;;;3.57;2.30;;;7.20;1.00;;;;;;5094540;28;20236;-78
2022/04/12 00:42:21;;;;;;;3.33;1.93;;;7.20;1.00;;;;;;5094908;28;20205;-78
2022/04/12 00:44:48;;;;;;;3.63;2.30;;;7.20;99.90;;;;;;5094559;28;20231;-78
2022/04/12 00:47:14;;;;;;;4.43;2.13;;;7.20;99.90;;;;;;5094672;28;20182;-78
2022/04/12 00:49:40;;;;;;;3.77;2.23;;;7.10;1.00;;;;;;5094479;28;20210;-78
2022/04/12 00:52:07;;;;;;;5.00;2.63;;;7.10;99.90;;;;;;5076069;28;20225;-78
2022/04/12 00:54:35;;;;;;;2.97;2.03;;;7.10;99.90;;;;;;5094228;28;20179;-78
2022/04/12 00:57:03;;;;;;;7.13;2.40;;;7.10;99.90;;;;;;5094289;28;20179;-78
2022/04/12 00:59:31;;;;;;;4.07;2.20;;;7.00;99.90;;;;;;5076147;28;20237;-77
2022/04/12 01:01:57;;;;;;;2.93;2.10;;;7.00;99.90;;;;;;5075997;28;20622;-78
2022/04/12 01:04:23;;;;;;;5.60;2.03;;;7.00;99.90;;;;;;5076337;28;20174;-78
2022/04/12 01:06:49;;;;;;;3.50;2.70;;;6.90;1.00;;;;;;5075776;28;20232;-78
2022/04/12 01:09:16;;;;;;;7.20;2.80;;;6.90;99.90;;;;;;5094030;28;20194;-77
2022/04/12 01:11:44;;;;;;;3.90;2.70;;;6.90;1.00;;;;;;5093999;28;20193;-78
2022/04/12 01:14:09;;;;;;;2.47;2.27;;;6.80;1.00;;;;;;5075861;28;20320;-78
2022/04/12 01:16:35;;;;;;;4.77;2.50;;;6.80;1.00;;;;;;5093809;28;20228;-78
2022/04/12 01:19:01;;;;;;;5.27;2.30;;;6.80;1.00;;;;;;5093843;28;20181;-77
2022/04/12 01:21:31;;;;;;;3.80;2.17;;;6.80;1.00;;;;;;5094058;28;20226;-78
2022/04/12 01:24:02;;;;;;;2.30;2.10;;;6.70;1.00;;;;;;5094447;28;20675;-78
2022/04/12 01:26:28;;;;;;;2.87;2.27;;;6.70;23.60;;;;;;5075536;28;20215;-77
2022/04/12 01:28:54;;;;;;;3.40;2.33;;;6.70;99.90;;;;;;5075186;28;20186;-77
2022/04/12 01:31:19;;;;;;;3.77;2.20;;;6.70;1.00;;;;;;5075778;28;20182;-78
2022/04/12 01:33:45;;;;;;;5.40;2.57;;;6.70;99.90;;;;;;5094739;28;20182;-77
2022/04/12 01:36:10;;;;;;;4.50;2.10;;;6.70;99.90;;;;;;5094505;28;20221;-78
2022/04/12 01:38:36;;;;;;;2.53;2.10;;;6.60;99.90;;;;;;5075515;28;20217;-78
2022/04/12 01:41:02;;;;;;;3.70;2.23;;;6.60;99.90;;;;;;5093550;28;20201;-78
2022/04/12 01:43:28;;;;;;;4.00;2.43;;;6.60;99.90;;;;;;5075485;28;20677;-78
2022/04/12 01:45:54;;;;;;;4.30;2.67;;;6.60;1.00;;;;;;5093711;28;20216;-78
2022/04/12 01:48:20;;;;;;;3.13;2.20;;;6.50;95.40;;;;;;5093319;28;20166;-78
2022/04/12 01:50:45;;;;;;;3.63;2.43;;;6.50;99.90;;;;;;5093128;28;20213;-78
2022/04/12 01:53:11;;;;;;;3.93;1.90;;;6.50;96.60;;;;;;5075349;28;20561;-78
2022/04/12 01:55:36;;;;;;;3.20;2.10;;;6.50;99.90;;;;;;5093636;28;20182;-78
2022/04/12 01:58:02;;;;;;;4.00;2.60;;;6.50;1.00;;;;;;5095237;28;20248;-78
2022/04/12 02:00:29;;;;;;;3.03;2.03;;;6.50;1.00;;;;;;5096282;28;20193;-77
2022/04/12 02:02:55;;;;;;;2.13;1.80;;;6.50;1.00;;;;;;5096492;28;20259;-78
2022/04/12 02:05:20;;;;;;;2.60;2.10;;;6.50;1.00;;;;;;5077254;28;20273;-78
2022/04/12 02:07:46;;;;;;;4.80;2.33;;;6.40;99.90;;;;;;5095795;28;20170;-78
2022/04/12 02:10:11;;;;;;;3.97;2.03;;;6.40;20.20;;;;;;5075498;28;20202;-78
2022/04/12 02:12:37;;;;;;;7.87;2.47;;;6.40;1.00;;;;;;5093076;28;20677;-78
2022/04/12 02:15:04;;;;;;;3.73;2.20;;;6.40;99.90;;;;;;5092654;28;20280;-77
2022/04/12 02:17:29;;;;;;;2.43;2.13;;;6.40;1.00;;;;;;5092380;28;20182;-78
2022/04/12 02:19:55;;;;;;;5.87;2.00;;;6.40;99.90;;;;;;5094378;28;20205;-77
2022/04/12 02:22:21;;;;;;;2.43;1.97;;;6.40;99.90;;;;;;5093836;28;20204;-77
2022/04/12 02:24:46;;;;;;;4.00;2.17;;;6.40;99.90;;;;;;5074979;28;20186;-77
2022/04/12 02:27:12;;;;;;;4.40;2.00;;;6.40;99.90;;;;;;5074724;28;20532;-78
2022/04/12 02:29:38;;;;;;;4.30;2.30;;;6.50;99.90;;;;;;5074801;28;20212;-77
2022/04/12 02:32:04;;;;;;;4.43;2.10;;;6.50;99.90;;;;;;5074428;28;20621;-77
2022/04/12 02:34:29;;;;;;;4.60;1.93;;;6.40;99.90;;;;;;5092671;28;20205;-77
2022/04/12 02:36:55;;;;;;;3.77;1.80;;;6.50;99.90;;;;;;5092425;28;20178;-77
2022/04/12 02:39:21;;;;;;;3.50;2.00;;;6.50;99.90;;;;;;5074481;28;20237;-78
2022/04/12 02:41:46;;;;;;;3.23;2.07;;;6.50;99.90;;;;;;5096000;28;20202;-76
2022/04/12 02:44:12;;;;;;;2.80;2.10;;;6.50;99.90;;;;;;5096547;28;20617;-77
2022/04/12 02:46:38;;;;;;;4.20;1.97;;;6.50;10.20;;;;;;5096664;28;20641;-78
2022/04/12 02:49:03;;;;;;;4.13;2.10;;;6.50;28.60;;;;;;5096106;28;20200;-78
2022/04/12 02:51:29;;;;;;;2.57;1.80;;;6.60;1.00;;;;;;5077916;28;20229;-77
2022/04/12 02:53:54;;;;;;;2.20;2.00;;;6.60;7.70;;;;;;5096307;28;20179;-78
2022/04/12 02:56:20;;;;;;;3.53;2.40;;;6.60;1.00;;;;;;5096164;28;20187;-77
2022/04/12 02:58:45;;;;;;;4.30;1.90;;;6.60;1.00;;;;;;5077847;28;20189;-78
2022/04/12 03:01:11;;;;;;;5.13;1.90;;;6.60;99.90;;;;;;5095760;28;20216;-77
2022/04/12 03:03:36;;;;;;;3.13;2.40;;;6.60;99.90;;;;;;5096008;28;20167;-75
2022/04/12 03:06:02;;;;;;;3.50;2.57;;;6.70;99.90;;;;;;5095831;28;20184;-78
2022/04/12 03:08:27;;;;;;;3.20;2.30;;;6.70;1.00;;;;;;5095748;28;20182;-78
2022/04/12 03:10:53;;;;;;;5.93;2.73;;;6.80;1.00;;;;;;5095906;28;20191;-78
2022/04/12 03:13:18;;;;;;;4.73;2.87;;;6.80;99.90;;;;;;5095586;28;20676;-78
2022/04/12 03:15:44;;;;;;;3.77;2.70;;;6.90;99.90;;;;;;5095846;28;20170;-77
2022/04/12 03:18:10;;;;;;;3.57;2.27;;;6.90;99.90;;;;;;5077348;28;20614;-77
2022/04/12 03:20:36;;;;;;;4.40;2.10;;;7.00;1.00;;;;;;5095429;28;20195;-78
2022/04/12 03:23:01;;;;;;;3.37;1.97;;;7.00;1.00;;;;;;5077225;28;20305;-77
2022/04/12 03:25:27;;;;;;;3.20;2.13;;;7.10;1.00;;;;;;5078540;28;20588;-77
2022/04/12 03:27:52;;;;;;;3.73;2.03;;;7.10;92.10;;;;;;5095577;28;20549;-78
2022/04/12 03:30:18;;;;;;;4.00;2.43;;;7.10;1.00;;;;;;5095231;28;20203;-77
2022/04/12 03:32:43;;;;;;;4.53;2.83;;;7.10;1.00;;;;;;5095399;28;20591;-77
2022/04/12 03:35:09;;;;;;;4.77;2.30;;;7.10;99.90;;;;;;5095016;28;20182;-78
2022/04/12 03:37:35;;;;;;;2.10;1.87;;;7.10;99.90;;;;;;5077103;28;20182;-77
2022/04/12 03:40:01;;;;;;;7.40;2.97;;;7.10;99.90;;;;;;5095184;28;20260;-77
2022/04/12 03:42:26;;;;;;;3.47;2.40;;;7.10;99.90;;;;;;5095002;28;20251;-78
2022/04/12 03:44:52;;;;;;;3.40;2.67;;;7.20;99.90;;;;;;5095104;28;20599;-77
2022/04/12 03:47:18;;;;;;;4.30;2.73;;;7.10;99.90;;;;;;5076942;28;20262;-78
2022/04/12 03:49:43;;;;;;;3.57;2.50;;;7.10;99.90;;;;;;5095477;28;20556;-77
2022/04/12 03:52:09;;;;;;;7.27;2.73;;;7.10;99.90;;;;;;5098881;28;20232;-77
2022/04/12 03:54:35;;;;;;;3.33;2.33;;;7.20;1.00;;;;;;5099911;28;20178;-77
2022/04/12 03:57:01;;;;;;;6.00;2.43;;;7.20;1.00;;;;;;5098519;28;20213;-77
2022/04/12 03:59:27;;;;;;;3.37;2.33;;;7.20;1.00;;;;;;5096108;28;20190;-78
2022/04/12 04:01:52;;;;;;;3.63;2.50;;;7.30;1.00;;;;;;5094844;28;20208;-77
2022/04/12 04:04:18;;;;;;;3.37;2.30;;;7.30;99.90;;;;;;5095047;28;20190;-78
2022/04/12 04:06:44;;;;;;;2.90;2.20;;;7.50;1.00;;;;;;5094707;28;20168;-77
2022/04/12 04:09:09;;;;;;;4.20;2.43;;;7.50;1.00;;;;;;5095006;28;20243;-77
2022/04/12 04:11:38;;;;;;;4.13;2.67;;;7.60;1.00;;;;;;5094549;28;20261;-78
2022/04/12 04:14:05;;;;;;;4.07;2.40;;;7.60;99.90;;;;;;5094365;28;20266;-78
2022/04/12 04:16:31;;;;;;;4.07;2.57;;;7.70;99.90;;;;;;5094395;28;20602;-77
2022/04/12 04:18:56;;;;;;;4.67;2.77;;;7.80;1.00;;;;;;5094332;28;20174;-77
2022/04/12 04:21:22;;;;;;;5.73;2.70;;;7.90;1.00;;;;;;5094404;28;20281;-77
2022/04/12 04:23:47;;;;;;;4.33;2.50;;;8.00;99.90;;;;;;5094970;28;20166;-78
2022/04/12 04:26:13;;;;;;;3.20;2.47;;;8.00;94.80;;;;;;5076451;28;20532;-77
2022/04/12 04:28:41;;;;;;;5.70;2.80;;;8.10;1.00;;;;;;5076436;28;20186;-76
2022/04/12 04:31:10;;;;;;;4.87;2.70;;;8.20;1.00;;;;;;5094083;28;20191;-78
2022/04/12 04:33:36;;;;;;;5.40;2.57;;;8.20;1.00;;;;;;5093852;28;20179;-78
2022/04/12 04:36:02;;;;;;;4.30;2.60;;;8.30;1.00;;;;;;5094048;28;20209;-77
2022/04/12 04:38:28;;;;;;;4.77;3.23;;;8.30;1.00;;;;;;5075513;28;20217;-78
2022/04/12 04:40:53;;;;;;;6.43;2.57;;;8.30;1.00;;;;;;5093966;28;20201;-77
2022/04/12 04:43:19;;;;;;;3.77;2.67;;;8.40;1.00;;;;;;5094858;28;20631;-77
2022/04/12 04:45:44;;;;;;;3.27;2.73;;;8.40;99.90;;;;;;5095914;28;20641;-78
2022/04/12 04:48:10;;;;;;;5.77;2.73;;;8.30;99.90;;;;;;5078334;28;20186;-77
2022/04/12 04:50:36;;;;;;;3.97;2.90;;;8.40;99.90;;;;;;5104086;22;20241;-74
2022/04/12 04:53:04;;;;;;;6.20;2.70;;;8.30;99.90;;;;;;5097106;28;20189;-74
2022/04/12 04:55:30;;;;;;;5.30;2.63;;;8.40;99.90;;;;;;5079495;28;20246;-74
2022/04/12 04:57:58;;;;;;;3.83;2.80;;;8.40;99.90;;;;;;5080060;28;20181;-75
2022/04/12 05:00:26;;;;;;;6.23;2.63;;;8.40;99.90;;;;;;5097420;28;20217;-75
2022/04/12 05:02:53;;;;;;;4.17;2.33;;;8.40;99.90;;;;;;5078559;28;20681;-74
2022/04/12 05:05:20;;;;;;;4.93;2.70;;;8.40;99.90;;;;;;5079061;28;20606;-74
2022/04/12 05:07:47;;;;;;;5.40;2.73;;;8.50;99.90;;;;;;5096656;28;20170;-74
2022/04/12 05:10:18;;;;;;;4.10;2.43;;;8.50;99.90;;;;;;5096948;28;20233;-75
2022/04/12 05:12:44;;;;;;;4.97;2.30;;;8.50;99.90;;;;;;5096879;28;20546;-75
2022/04/12 05:15:10;;;;;;;5.47;2.93;;;8.60;99.90;;;;;;5096199;28;20180;-75
2022/04/12 05:17:35;;;;;;;3.80;2.33;;;8.60;99.90;;;;;;5096117;28;20181;-76
2022/04/12 05:20:02;;;;;;;3.70;2.33;;;8.60;99.90;;;;;;5096885;28;20202;-76
2022/04/12 05:22:28;;;;;;;4.70;2.20;;;8.60;99.90;;;;;;5078377;28;20216;-76
2022/04/12 05:24:53;;;;;;;4.13;2.43;;;8.60;99.90;;;;;;5096734;28;20186;-75
2022/04/12 05:27:19;;;;;;;5.60;2.10;;;8.60;1.00;;;;;;5078607;28;20182;-75
2022/04/12 05:29:45;;;;;;;2.80;2.03;;;8.60;1.00;;;;;;5078035;28;20681;-76
2022/04/12 05:32:13;;;;;;;3.73;2.00;;;8.70;1.00;;;;;;5097295;28;20243;-76
2022/04/12 05:34:42;;;;;;;3.97;2.03;;;8.60;1.00;;;;;;5096555;28;20257;-76
2022/04/12 05:37:08;;;;;;;4.07;2.20;;;8.70;1.00;;;;;;5096044;28;20178;-75
2022/04/12 05:39:34;;;;;;;3.47;2.00;;;8.70;1.00;;;;;;5096297;28;20177;-77
2022/04/12 05:42:00;;;;;;;4.50;2.27;;;8.80;1.00;;;;;;5077804;28;20584;-76
2022/04/12 05:44:27;;;;;;;3.20;1.93;;;8.80;1.00;;;;;;5096272;28;20169;-76
2022/04/12 05:46:53;;;;;;;3.67;2.37;;;8.90;1.00;;;;;;5077881;28;20602;-76
2022/04/12 05:49:18;;;;;;;4.87;2.00;;;8.90;1.00;;;;;;5095613;28;20174;-76
2022/04/12 05:51:44;;;;;;;6.87;1.87;;;9.00;1.00;;;;;;5095675;28;20715;-76
2022/04/12 05:54:09;;;;;;;7.37;2.00;;;9.00;1.00;;;;;;5078229;28;20178;-76
2022/04/12 05:56:35;;;;;;;5.30;2.00;;;9.10;1.00;;;;;;5078480;28;20182;-75
2022/04/12 05:59:00;;;;;;;3.07;2.07;;;9.10;99.90;;;;;;5078683;28;20178;-76
2022/04/12 06:01:26;;;;;;;3.63;1.90;;;9.20;99.90;;;;;;5076486;28;20577;-74
2022/04/12 06:03:51;;;;;;;4.53;2.70;;;9.30;99.90;;;;;;5077115;28;20213;-76
2022/04/12 06:06:17;;;;;;;6.37;2.50;;;9.30;99.90;;;;;;5076644;28;20693;-76
2022/04/12 06:08:43;;;;;;;6.20;2.23;;;9.40;99.90;;;;;;5077546;28;20216;-75
2022/04/12 06:11:08;;;;;;;7.50;2.20;;;9.50;85.60;;;;;;5077310;28;20251;-75
2022/04/12 06:13:34;;;;;;;5.47;2.50;;;9.50;60.00;;;;;;5077783;28;20661;-77
2022/04/12 06:15:59;;;;;;;7.17;2.50;;;9.60;1.00;;;;;;5081820;28;20174;-76
2022/04/12 06:18:25;;;;;;;3.83;2.30;;;9.60;1.00;;;;;;5099919;28;20170;-75
2022/04/12 06:20:50;;;;;;;8.73;2.93;;;9.80;1.00;;;;;;5100199;28;20281;-77
2022/04/12 06:23:17;;;;;;;4.20;2.83;;;9.80;1.00;;;;;;5100246;28;20210;-75
2022/04/12 06:25:43;;;;;;;3.60;2.80;;;9.90;1.00;;;;;;5099777;28;20236;-75
2022/04/12 06:28:09;;;;;;;5.13;2.90;;;10.00;1.00;;;;;;5100801;28;20178;-76
2022/04/12 06:30:35;;;;;;;6.10;2.90;;;10.10;1.00;;;;;;5098581;28;20281;-76
2022/04/12 06:33:00;;;;;;;4.93;2.87;;;10.20;1.00;;;;;;5098128;28;20301;-77
2022/04/12 06:35:26;;;;;;;3.03;2.50;;;10.30;1.00;;;;;;5079562;28;20190;-75
2022/04/12 06:37:53;;;;;;;3.47;2.07;;;10.40;99.90;;;;;;5079527;28;20240;-76
2022/04/12 06:40:20;;;;;;;4.73;2.90;;;10.50;1.00;;;;;;5079213;28;20241;-75
2022/04/12 06:42:47;;;;;;;4.70;2.97;;;10.50;99.90;;;;;;5105007;28;20298;-75
2022/04/12 06:45:12;;;;;;;4.90;2.80;;;10.60;99.90;;;;;;5090830;28;20189;-77
2022/04/12 06:47:39;;;;;;;4.60;3.53;;;10.70;99.90;;;;;;5086917;28;20633;-77
2022/04/12 06:50:06;;;;;;;5.97;2.93;;;10.70;99.90;;;;;;5080534;28;20229;-76
2022/04/12 06:52:32;;;;;;;3.83;2.43;;;10.80;99.90;;;;;;5098041;28;20182;-75
2022/04/12 06:54:58;;;;;;;4.53;2.73;;;10.90;99.90;;;;;;5098216;28;20256;-76
2022/04/12 06:57:24;;;;;;;4.43;2.90;;;11.00;99.90;;;;;;5097584;28;20182;-77
2022/04/12 06:59:51;;;;;;;5.00;2.80;;;11.20;91.10;;;;;;5080626;28;20272;-75
2022/04/12 07:02:17;;;;;;;4.13;2.53;;;11.20;80.10;;;;;;5095263;28;20669;-76
2022/04/12 07:04:42;;;;;;;5.53;2.70;;;11.30;1.00;;;;;;5097538;28;20196;-76
2022/04/12 07:07:09;;;;;;;6.13;2.90;;;11.50;1.00;;;;;;5105273;28;20627;-77
2022/04/12 07:09:35;;;;;;;2.97;2.40;;;11.50;1.00;;;;;;5101831;28;20217;-80
2022/04/12 07:12:02;;;;;;;5.57;2.93;;;11.70;1.00;;;;;;5095641;28;20194;-77
2022/04/12 07:14:29;;;;;;;4.13;2.63;;;11.70;1.00;;;;;;5081924;28;20194;-77
2022/04/12 07:16:55;;;;;;;5.10;2.60;;;11.80;1.00;;;;;;5078148;28;20190;-77
2022/04/12 07:19:21;;;;;;;4.40;2.73;;;11.90;1.00;;;;;;5076970;28;20197;-77
2022/04/12 07:21:48;;;;;;;3.97;2.47;;;12.00;1.00;;;;;;5078295;28;20214;-77
2022/04/12 07:24:14;;;;;;;8.43;2.60;;;12.00;1.00;;;;;;5078387;28;20638;-77
2022/04/12 07:26:40;;;;;;;6.20;2.40;;;12.10;1.00;;;;;;5075841;28;20286;-77
2022/04/12 07:29:06;;;;;;;4.60;2.30;;;12.20;1.00;;;;;;5076780;28;20194;-77
2022/04/12 07:31:32;;;;;;;3.10;2.17;;;12.30;1.00;;;;;;5077067;28;20204;-77
2022/04/12 07:33:58;;;;;;;2.83;2.07;;;12.30;1.00;;;;;;5078748;28;20172;-77
2022/04/12 07:36:24;;;;;;;3.87;2.27;;;12.40;1.00;;;;;;5077211;28;20234;-77
2022/04/12 07:38:49;;;;;;;5.00;2.70;;;12.50;1.00;;;;;;5077367;28;20559;-77
2022/04/12 07:41:16;;;;;;;5.40;2.20;;;12.60;99.90;;;;;;5076769;28;20570;-77
2022/04/12 07:43:49;;;;;;;3.40;2.50;;;12.70;99.90;;;;;;5078488;28;20274;-77
2022/04/12 07:46:15;;;;;;;4.83;2.50;;;12.80;99.90;;;;;;5097411;28;20179;-77
2022/04/12 07:48:41;;;;;;;6.13;2.27;;;12.80;99.90;;;;;;5098555;28;20261;-77
2022/04/12 07:51:07;;;;;;;3.43;2.47;;;13.00;99.90;;;;;;5098525;28;20688;-77
2022/04/12 07:53:33;;;;;;;2.03;1.73;;;13.00;99.90;;;;;;5080345;28;20192;-77
2022/04/12 07:55:59;;;;;;;5.13;2.53;;;13.10;99.90;;;;;;5084012;28;20269;-78
2022/04/12 07:58:24;;;;;;;3.27;2.17;;;13.20;99.90;;;;;;5098076;28;20604;-78
2022/04/12 08:00:51;;;;;;;2.27;2.03;;;13.30;99.90;;;;;;5097557;28;20369;-77
2022/04/12 08:03:20;;;;;;;4.33;2.07;;;13.30;55.40;;;;;;5098854;28;20296;-77
2022/04/12 08:05:46;;;;;;;3.50;2.47;;;13.50;1.00;;;;;;5118656;28;20173;-76
2022/04/12 08:08:12;;;;;;;3.10;2.10;;;13.50;8.60;;;;;;5100321;28;20256;-78
2022/04/12 08:10:37;;;;;;;6.00;2.40;;;13.60;1.20;;;;;;5118561;28;20306;-77
2022/04/12 08:13:03;;;;;;;3.33;2.00;;;13.60;1.00;;;;;;5101187;28;20181;-77
2022/04/12 08:15:28;;;;;;;2.87;2.13;;;13.60;1.00;;;;;;5100995;28;20607;-77
2022/04/12 08:17:54;;;;;;;2.93;1.90;;;13.70;9.00;;;;;;5119426;28;20295;-76
2022/04/12 08:20:20;;;;;;;4.70;1.87;;;13.70;78.80;;;;;;5119507;28;20676;-78
2022/04/12 08:22:45;;;;;;;2.50;1.77;;;13.70;62.40;;;;;;5118684;28;20684;-77
2022/04/12 08:25:11;;;;;;;4.93;1.80;;;13.70;61.40;;;;;;5119043;28;20196;-78
2022/04/12 08:27:37;;;;;;;2.67;1.73;;;13.90;1.00;;;;;;5118491;28;20173;-77
2022/04/12 08:30:06;;;;;;;3.63;1.70;;;13.90;1.00;;;;;;5100508;28;20204;-78
2022/04/12 08:32:33;;;;;;;2.57;1.73;;;14.00;1.00;;;;;;5118991;28;20184;-78
2022/04/12 08:34:59;;;;;;;3.37;1.77;;;14.00;1.00;;;;;;5118829;28;20169;-78
2022/04/12 08:37:24;;;;;;;4.60;1.93;;;14.00;1.00;;;;;;5100624;28;20193;-77
2022/04/12 08:39:50;;;;;;;4.80;1.50;;;14.10;1.00;;;;;;5119058;28;20760;-78
2022/04/12 08:42:17;;;;;;;3.63;1.40;;;14.20;1.00;;;;;;5100344;28;20703;-77
2022/04/12 08:44:45;;;;;;;3.70;1.23;;;14.30;1.00;;;;;;5119198;28;20169;-77
2022/04/12 08:47:15;;;;;;;3.93;1.40;;;14.40;1.00;;;;;;5118849;28;20169;-78
2022/04/12 08:49:40;;;;;;;2.43;1.43;;;14.50;1.00;;;;;;5118396;28;20664;-77
2022/04/12 08:52:11;;;;;;;3.23;1.47;;;14.50;1.00;;;;;;5100683;28;20234;-76
2022/04/12 08:54:40;;;;;;;2.97;1.30;;;14.60;1.00;;;;;;5100537;28;20184;-77
2022/04/12 08:57:06;;;;;;;2.97;1.37;;;14.70;1.00;;;;;;5118633;28;20185;-78
2022/04/12 08:59:32;;;;;;;4.97;1.50;;;14.90;1.00;;;;;;5118449;28;20692;-78
2022/04/12 09:01:58;;;;;;;2.57;1.30;;;14.90;1.00;;;;;;5118148;28;20699;-77
2022/04/12 09:04:27;;;;;;;2.37;1.50;;;15.10;1.00;;;;;;5119033;28;20173;-78
2022/04/12 09:06:54;;;;;;;6.23;1.33;;;15.20;1.00;;;;;;5100604;28;20184;-78
2022/04/12 09:09:25;;;;;;;4.23;1.70;;;15.20;1.00;;;;;;5100500;28;20273;-77
2022/04/12 09:12:02;;;;;;;2.73;1.40;;;15.30;1.00;;;;;;5118581;28;20629;-78
2022/04/12 09:14:41;;;;;;;2.50;1.33;;;15.40;1.00;;;;;;5118451;28;20173;-78
2022/04/12 09:17:10;;;;;;;2.93;1.50;;;15.50;99.90;;;;;;5118581;28;20188;-78
2022/04/12 09:19:43;;;;;;;3.33;1.40;;;15.50;99.90;;;;;;5118777;28;20185;-78
2022/04/12 09:22:16;;;;;;;7.67;1.63;;;15.60;99.90;;;;;;5100032;28;20282;-78
2022/04/12 09:24:50;;;;;;;3.40;1.43;;;15.80;99.90;;;;;;5118588;28;20237;-77
2022/04/12 09:27:17;;;;;;;2.37;1.33;;;15.80;99.90;;;;;;5119225;28;20174;-78
2022/04/12 09:29:48;;;;;;;4.50;1.30;;;15.90;99.90;;;;;;5100222;28;20205;-77
2022/04/12 09:32:15;;;;;;;3.47;1.30;;;16.00;99.90;;;;;;5118872;28;20177;-78
2022/04/12 09:34:44;;;;;;;3.23;1.63;;;16.00;99.90;;;;;;5117953;28;20208;-78
2022/04/12 09:37:29;;;;;;;5.37;1.60;;;16.10;99.90;;;;;;5118735;28;20206;-77
2022/04/12 09:40:03;;;;;;;3.30;1.40;;;16.20;99.90;;;;;;5100157;28;20704;-77
2022/04/12 09:42:49;;;;;;;2.43;1.40;;;16.30;99.90;;;;;;5119109;28;20287;-76
2022/04/12 09:45:19;;;;;;;3.20;1.50;;;16.30;99.90;;;;;;5100045;28;20250;-77
2022/04/12 09:47:46;;;;;;;2.43;1.13;;;16.50;99.90;;;;;;5100303;28;20210;-77
2022/04/12 09:50:12;;;;;;;3.77;1.50;;;16.60;99.90;;;;;;5105665;28;20646;-77
2022/04/12 09:52:39;;;;;;;2.33;1.50;;;16.90;99.90;;;;;;5125700;28;20215;-77
2022/04/12 09:55:06;;;;;;;3.53;1.40;;;16.70;99.90;;;;;;5125324;28;20198;-77
2022/04/12 09:57:32;;;;;;;4.50;1.20;;;16.90;99.90;;;;;;5125186;28;20169;-77
2022/04/12 09:59:58;;;;;;;6.90;1.10;;;16.90;99.90;;;;;;5107024;28;20556;-77
2022/04/12 10:02:26;;;;;;;3.63;0.97;;;17.00;99.90;;;;;;5107046;28;20200;-77
2022/04/12 10:04:54;;;;;;;3.20;1.43;;;17.20;99.90;;;;;;5126145;28;20181;-77
2022/04/12 10:07:21;;;;;;;2.40;1.20;;;17.20;99.90;;;;;;5125252;28;20176;-76
2022/04/12 10:09:50;;;;;;;2.43;1.20;;;17.30;99.90;;;;;;5125420;28;20268;-77
2022/04/12 10:12:17;;;;;;;2.97;1.30;;;17.40;99.90;;;;;;5124912;28;20167;-78
2022/04/12 10:14:43;;;;;;;2.10;1.30;;;17.50;99.90;;;;;;5125230;28;20181;-77
2022/04/12 10:17:10;;;;;;;3.87;1.37;;;17.70;99.90;;;;;;5124137;28;20200;-77
2022/04/12 10:19:35;;;;;;;8.73;1.57;;;17.60;99.90;;;;;;5106953;28;20652;-77
2022/04/12 10:22:03;;;;;;;2.43;1.20;;;17.80;99.90;;;;;;5126122;28;20208;-77
2022/04/12 10:24:30;;;;;;;5.43;1.53;;;17.90;99.90;;;;;;5107410;28;20188;-76
2022/04/12 10:26:56;;;;;;;3.00;1.37;;;17.90;99.90;;;;;;5107104;28;20193;-76
2022/04/12 10:29:22;;;;;;;4.07;1.20;;;18.00;99.90;;;;;;5106982;28;20204;-77
2022/04/12 10:32:12;;;;;;;2.10;1.60;;;18.00;99.90;;;;;;5107104;28;20181;-76
2022/04/12 10:34:57;;;;;;;1.60;1.20;;;18.10;99.90;;;;;;5126107;28;20166;-76
2022/04/12 10:37:23;;;;;;;3.50;1.20;;;18.10;99.90;;;;;;5106823;28;20185;-76
2022/04/12 10:39:55;;;;;;;3.27;1.33;;;18.20;99.90;;;;;;5106528;28;20201;-76
2022/04/12 10:42:26;;;;;;;4.77;1.30;;;18.30;99.90;;;;;;5125169;28;20197;-76
2022/04/12 10:44:53;;;;;;;3.57;1.43;;;18.30;99.90;;;;;;5106656;28;20182;-76
2022/04/12 10:47:36;;;;;;;2.23;1.30;;;18.50;99.90;;;;;;5125328;28;20538;-77
2022/04/12 10:50:07;;;;;;;2.33;1.20;;;18.60;99.90;;;;;;5131879;22;20213;-77
2022/04/12 10:52:36;;;;;;;3.97;1.40;;;18.60;99.90;;;;;;5102064;28;20159;-77
2022/04/12 10:55:04;;;;;;;4.33;1.30;;;18.70;99.90;;;;;;5083706;28;20198;-78
2022/04/12 10:57:30;;;;;;;4.23;1.47;;;18.70;99.90;;;;;;5103027;28;20222;-77
2022/04/12 11:00:04;;;;;;;2.33;1.30;;;18.80;99.90;;;;;;5108752;28;20186;-77
2022/04/12 11:02:35;;;;;;;3.97;1.20;;;18.90;99.90;;;;;;5097501;28;20212;-78
2022/04/12 11:05:01;;;;;;;2.80;1.20;;;18.90;99.90;;;;;;5095220;28;20638;-77
2022/04/12 11:07:32;;;;;;;3.30;1.30;;;19.00;99.90;;;;;;5100356;28;20181;-79
2022/04/12 11:10:12;;;;;;;2.83;1.40;;;19.10;99.90;;;;;;5099241;28;20159;-78
2022/04/12 11:12:42;;;;;;;5.53;1.90;;;19.10;99.90;;;;;;5099843;28;20174;-77
2022/04/12 11:15:23;;;;;;;3.73;1.20;;;19.20;99.90;;;;;;5099686;28;20646;-78
2022/04/12 11:17:49;;;;;;;1.40;0.90;;;19.20;99.90;;;;;;5087900;28;20228;-76
2022/04/12 11:20:22;;;;;;;2.43;1.17;;;19.30;99.90;;;;;;5112125;28;20273;-78
2022/04/12 11:22:57;;;;;;;3.00;1.30;;;19.30;99.90;;;;;;5106127;28;20245;-78
2022/04/12 11:25:26;;;;;;;4.73;1.00;;;19.50;99.90;;;;;;5097827;28;20526;-78
2022/04/12 11:27:59;;;;;;;2.87;1.33;;;19.60;99.90;;;;;;5080012;28;20183;-78
2022/04/12 11:30:26;;;;;;;3.00;1.10;;;19.70;99.90;;;;;;5097980;28;20284;-78
2022/04/12 11:32:54;;;;;;;2.80;1.00;;;19.80;99.90;;;;;;5080261;28;20226;-78
2022/04/12 11:35:20;;;;;;;2.13;1.10;;;19.80;99.90;;;;;;5079812;28;20186;-78
2022/04/12 11:37:46;;;;;;;1.93;1.00;;;19.90;99.90;;;;;;5098713;28;20260;-78
2022/04/12 11:40:12;;;;;;;2.23;1.00;;;20.00;99.90;;;;;;5098278;28;20695;-79
2022/04/12 11:42:37;;;;;;;2.53;1.27;;;20.10;99.90;;;;;;5097857;28;20198;-78
2022/04/12 11:45:03;;;;;;;2.13;1.27;;;20.10;99.90;;;;;;5098232;28;20178;-79
2022/04/12 11:47:33;;;;;;;2.17;1.37;;;20.10;99.90;;;;;;5098439;28;20551;-79
2022/04/12 11:49:59;;;;;;;2.90;1.30;;;20.20;99.90;;;;;;5097684;28;20588;-79
2022/04/12 11:52:27;;;;;;;4.70;1.57;;;20.30;99.90;;;;;;5098004;28;20171;-79
2022/04/12 11:54:52;;;;;;;3.07;1.20;;;20.30;99.90;;;;;;5098151;28;20239;-79
2022/04/12 11:57:24;;;;;;;2.60;1.27;;;20.30;99.90;;;;;;5079786;28;20665;-79
2022/04/12 11:59:56;;;;;;;3.47;1.17;;;20.20;99.90;;;;;;5097873;28;20159;-79
2022/04/12 12:02:34;;;;;;;2.27;1.10;;;20.20;99.90;;;;;;5098302;28;20570;-79
2022/04/12 12:05:01;;;;;;;2.83;1.10;;;20.20;99.90;;;;;;5079787;28;20578;-79
2022/04/12 12:07:28;;;;;;;4.17;1.53;;;20.20;99.90;;;;;;5098866;28;20171;-79
2022/04/12 12:09:57;;;;;;;4.93;1.30;;;20.20;99.90;;;;;;5098725;28;20190;-79
2022/04/12 12:12:40;;;;;;;3.60;1.00;;;20.20;99.90;;;;;;5079377;28;20641;-79
2022/04/12 12:15:22;;;;;;;5.43;1.10;;;20.10;99.90;;;;;;5098768;28;20178;-79
2022/04/12 12:17:49;;;;;;;4.00;1.13;;;20.20;99.90;;;;;;5081382;28;20180;-79
2022/04/12 12:20:17;;;;;;;2.97;1.03;;;20.30;99.90;;;;;;5080093;28;20659;-78
2022/04/12 12:22:44;;;;;;;5.30;1.50;;;20.40;99.90;;;;;;5098504;28;20301;-79
2022/04/12 12:25:13;;;;;;;2.30;1.10;;;20.50;99.90;;;;;;5080712;28;20207;-79
2022/04/12 12:27:39;;;;;;;3.33;1.17;;;20.60;99.90;;;;;;5098919;28;20162;-79
2022/04/12 12:30:08;;;;;;;3.77;1.13;;;20.60;99.90;;;;;;5099921;28;20166;-79
2022/04/12 12:32:38;;;;;;;2.33;0.90;;;20.70;99.90;;;;;;5100172;28;20201;-80
2022/04/12 12:35:15;;;;;;;2.70;1.10;;;20.80;99.90;;;;;;5100585;28;20155;-79
2022/04/12 12:37:42;;;;;;;2.80;1.20;;;20.80;99.90;;;;;;5102406;28;20174;-79
2022/04/12 12:40:23;;;;;;;2.97;1.30;;;20.90;99.90;;;;;;5107151;28;20202;-78
2022/04/12 12:42:50;;;;;;;2.77;1.03;;;21.00;99.90;;;;;;5097989;28;20198;-79
2022/04/12 12:45:22;;;;;;;2.93;1.10;;;21.00;99.90;;;;;;5097300;28;20190;-79
2022/04/12 12:47:51;;;;;;;4.33;1.10;;;21.20;99.90;;;;;;5079483;28;20185;-80
2022/04/12 12:50:18;;;;;;;1.77;1.23;;;21.10;99.90;;;;;;5097588;28;20241;-79
2022/04/12 12:52:45;;;;;;;1.20;0.90;;;21.20;99.90;;;;;;5097332;28;20250;-79
2022/04/12 12:55:23;;;;;;;4.00;0.87;;;21.30;99.90;;;;;;5097527;28;20183;-79
2022/04/12 12:57:52;;;;;;;4.33;1.30;;;21.30;99.90;;;;;;5078751;28;20188;-79